JLY301 LGSK-LQSA
Flight info
| Callsign | JLY301 |
|---|---|
| Flight time | N/A |
| Altitude | 38000 |
| Route | TSL UN130 TALAS DCT LONTA DCT KEB |
| Aircraft | A21N/M-SDE2E3FGHIRWXY/LB1 |
Departure
| Time | 2026-04-27 00:10 |
|---|---|
| Airport | Skiathos Island National Airport (LGSK) |
Arrival
| Time | N/A |
|---|---|
| Airport | Sarajevo International Airport (LQSA) |
| Time | Latitude | Longitude | Altitude | Speed | Heading |
|---|---|---|---|---|---|
| 2026-04-26 23:42 | 39.17836 | 23.50210 | 45 ft | 0 kts | 289° |
| 2026-04-27 00:00 | 39.17835 | 23.50217 | 38 ft | 2 kts | 289° |
| 2026-04-27 00:00 | 39.17828 | 23.50241 | 43 ft | 3 kts | 289° |
| 2026-04-27 00:00 | 39.17823 | 23.50260 | 42 ft | 3 kts | 285° |
| 2026-04-27 00:01 | 39.17821 | 23.50283 | 42 ft | 3 kts | 248° |
| 2026-04-27 00:01 | 39.17832 | 23.50299 | 43 ft | 3 kts | 207° |
| 2026-04-27 00:01 | 39.17846 | 23.50308 | 45 ft | 1 kts | 199° |
| 2026-04-27 00:01 | 39.17850 | 23.50310 | 44 ft | 0 kts | 199° |
| 2026-04-27 00:05 | 39.17850 | 23.50309 | 44 ft | 1 kts | 199° |
| 2026-04-27 00:05 | 39.17830 | 23.50300 | 45 ft | 5 kts | 199° |
| 2026-04-27 00:05 | 39.17779 | 23.50277 | 45 ft | 10 kts | 200° |
| 2026-04-27 00:05 | 39.17705 | 23.50253 | 44 ft | 6 kts | 190° |
| 2026-04-27 00:06 | 39.17659 | 23.50237 | 43 ft | 9 kts | 198° |
| 2026-04-27 00:06 | 39.17629 | 23.50225 | 44 ft | 1 kts | 198° |
| 2026-04-27 00:06 | 39.17608 | 23.50218 | 44 ft | 6 kts | 186° |
| 2026-04-27 00:06 | 39.17560 | 23.50254 | 44 ft | 11 kts | 133° |
| 2026-04-27 00:07 | 39.17478 | 23.50264 | 45 ft | 14 kts | 198° |
| 2026-04-27 00:07 | 39.17380 | 23.50223 | 41 ft | 16 kts | 198° |
| 2026-04-27 00:07 | 39.17276 | 23.50176 | 33 ft | 16 kts | 200° |
| 2026-04-27 00:07 | 39.17164 | 23.50124 | 27 ft | 18 kts | 200° |
| 2026-04-27 00:08 | 39.17083 | 23.50090 | 24 ft | 7 kts | 188° |
| 2026-04-27 00:08 | 39.17043 | 23.50096 | 19 ft | 4 kts | 175° |
| 2026-04-27 00:08 | 39.17034 | 23.50095 | 18 ft | 0 kts | 193° |
| 2026-04-27 00:08 | 39.17023 | 23.50084 | 17 ft | 9 kts | 238° |
| 2026-04-27 00:09 | 39.17037 | 23.50069 | 19 ft | 1 kts | 25° |
| 2026-04-27 00:09 | 39.17050 | 23.50075 | 19 ft | 0 kts | 15° |
| 2026-04-27 00:10 | 39.17098 | 23.50094 | 24 ft | 35 kts | 18° |
| 2026-04-27 00:10 | 39.17633 | 23.50333 | 47 ft | 128 kts | 19° |
| 2026-04-27 00:10 | 39.18739 | 23.50828 | 374 ft | 194 kts | 19° |
| 2026-04-27 00:10 | 39.20024 | 23.51410 | 1699 ft | 193 kts | 19° |
| 2026-04-27 00:11 | 39.21269 | 23.51980 | 2987 ft | 187 kts | 19° |
| 2026-04-27 00:11 | 39.22430 | 23.52777 | 4001 ft | 194 kts | 42° |
| 2026-04-27 00:11 | 39.23050 | 23.54282 | 4659 ft | 200 kts | 78° |
| 2026-04-27 00:11 | 39.23024 | 23.56110 | 5247 ft | 205 kts | 99° |
| 2026-04-27 00:12 | 39.22368 | 23.57736 | 5921 ft | 218 kts | 130° |
| 2026-04-27 00:12 | 39.21152 | 23.59150 | 6733 ft | 244 kts | 137° |
| 2026-04-27 00:12 | 39.19802 | 23.60501 | 7501 ft | 252 kts | 141° |
| 2026-04-27 00:12 | 39.18351 | 23.61786 | 8258 ft | 252 kts | 151° |
| 2026-04-27 00:13 | 39.16658 | 23.62519 | 9021 ft | 255 kts | 160° |
| 2026-04-27 00:13 | 39.15156 | 23.63628 | 9784 ft | 254 kts | 133° |
| 2026-04-27 00:13 | 39.14192 | 23.65496 | 10509 ft | 252 kts | 106° |
| 2026-04-27 00:13 | 39.13992 | 23.67716 | 11228 ft | 252 kts | 79° |
| 2026-04-27 00:14 | 39.14611 | 23.69840 | 12000 ft | 252 kts | 52° |
| 2026-04-27 00:14 | 39.15879 | 23.71331 | 12743 ft | 253 kts | 26° |
| 2026-04-27 00:14 | 39.17592 | 23.71940 | 13536 ft | 256 kts | 0° |
| 2026-04-27 00:14 | 39.19312 | 23.71497 | 14270 ft | 259 kts | 334° |
| 2026-04-27 00:15 | 39.20736 | 23.70081 | 14994 ft | 262 kts | 309° |
| 2026-04-27 00:15 | 39.21691 | 23.68077 | 15743 ft | 264 kts | 298° |
| 2026-04-27 00:15 | 39.22549 | 23.65865 | 16530 ft | 289 kts | 297° |
| 2026-04-27 00:15 | 39.23473 | 23.63427 | 17359 ft | 316 kts | 297° |
| 2026-04-27 00:16 | 39.24538 | 23.60799 | 18204 ft | 345 kts | 302° |
| 2026-04-27 00:16 | 39.25959 | 23.58138 | 18965 ft | 377 kts | 311° |
| 2026-04-27 00:16 | 39.27982 | 23.55868 | 19715 ft | 393 kts | 326° |
| 2026-04-27 00:16 | 39.30458 | 23.54302 | 20474 ft | 401 kts | 338° |
| 2026-04-27 00:17 | 39.33136 | 23.53198 | 21243 ft | 407 kts | 342° |
| 2026-04-27 00:17 | 39.35878 | 23.52222 | 22013 ft | 411 kts | 343° |
| 2026-04-27 00:17 | 39.38655 | 23.51239 | 22817 ft | 416 kts | 343° |
| 2026-04-27 00:17 | 39.41465 | 23.50254 | 23632 ft | 421 kts | 343° |
| 2026-04-27 00:18 | 39.44270 | 23.49087 | 24382 ft | 427 kts | 338° |
| 2026-04-27 00:18 | 39.47061 | 23.47702 | 25193 ft | 432 kts | 337° |
| 2026-04-27 00:18 | 39.49881 | 23.46280 | 26010 ft | 439 kts | 337° |
| 2026-04-27 00:18 | 39.52755 | 23.44852 | 26813 ft | 446 kts | 337° |
| 2026-04-27 00:19 | 39.55675 | 23.43422 | 27597 ft | 453 kts | 338° |
| 2026-04-27 00:19 | 39.58633 | 23.41983 | 28320 ft | 453 kts | 338° |
| 2026-04-27 00:19 | 39.61562 | 23.40561 | 29040 ft | 449 kts | 337° |
| 2026-04-27 00:19 | 39.64588 | 23.39087 | 29733 ft | 479 kts | 337° |
| 2026-04-27 00:20 | 39.67722 | 23.37603 | 30284 ft | 478 kts | 339° |
| 2026-04-27 00:20 | 39.70842 | 23.36357 | 31450 ft | 456 kts | 341° |
| 2026-04-27 00:20 | 39.73818 | 23.35255 | 32973 ft | 442 kts | 342° |
| 2026-04-27 00:20 | 39.76787 | 23.34214 | 34538 ft | 442 kts | 342° |
| 2026-04-27 00:21 | 39.79702 | 23.32956 | 35839 ft | 443 kts | 332° |
| 2026-04-27 00:21 | 39.82467 | 23.31097 | 36780 ft | 453 kts | 330° |
| 2026-04-27 00:21 | 39.85268 | 23.29268 | 37370 ft | 449 kts | 333° |
| 2026-04-27 00:21 | 39.88088 | 23.27660 | 37690 ft | 448 kts | 336° |